createdAt,value
2019-03-31T00:01:56.665Z,68.77
2019-03-31T00:04:25.042Z,69.23
2019-03-31T00:06:53.524Z,66.93
2019-03-31T00:09:21.903Z,67.23
2019-03-31T00:11:50.436Z,66.97
2019-03-31T00:14:18.834Z,69.90
2019-03-31T00:16:47.234Z,69.30
2019-03-31T00:19:15.729Z,71.10
2019-03-31T00:21:44.138Z,70.93
2019-03-31T00:24:12.551Z,74.23
2019-03-31T00:26:40.962Z,73.70
2019-03-31T00:29:09.374Z,70.50
2019-03-31T00:31:37.755Z,73.27
2019-03-31T00:34:06.173Z,72.37
2019-03-31T00:36:34.549Z,71.83
2019-03-31T00:39:03.442Z,71.87
2019-03-31T00:41:31.844Z,72.50
2019-03-31T00:44:00.237Z,71.00
2019-03-31T00:46:28.655Z,70.80
2019-03-31T00:48:57.138Z,74.00
2019-03-31T00:51:25.514Z,74.07
2019-03-31T00:53:53.967Z,72.30
2019-03-31T00:56:22.346Z,70.13
2019-03-31T00:58:50.767Z,73.70
2019-03-31T01:01:20.796Z,73.50
2019-03-31T01:03:49.254Z,69.47
2019-03-31T01:06:18.237Z,69.87
2019-03-31T01:08:46.737Z,73.53
2019-03-31T01:11:17.847Z,70.77
2019-03-31T01:13:46.262Z,71.70
2019-03-31T01:16:15.555Z,73.70
2019-03-31T01:18:44.007Z,70.83
2019-03-31T01:21:12.414Z,70.17
2019-03-31T01:23:40.803Z,69.53
2019-03-31T01:26:09.489Z,68.63
2019-03-31T01:28:37.939Z,72.20
2019-03-31T01:31:06.379Z,73.17
2019-03-31T01:33:34.864Z,70.53
2019-03-31T01:36:03.437Z,71.00
2019-03-31T01:38:31.851Z,71.57
2019-03-31T01:41:00.254Z,70.50
2019-03-31T01:43:28.759Z,70.03
2019-03-31T01:45:57.148Z,67.27
2019-03-31T01:48:25.552Z,71.23
2019-03-31T01:50:53.983Z,70.83
2019-03-31T01:53:22.449Z,69.70
2019-03-31T01:55:50.865Z,68.30
2019-03-31T01:58:19.317Z,69.37
2019-03-31T02:00:49.368Z,67.20
2019-03-31T02:03:17.810Z,69.07
2019-03-31T02:05:46.327Z,70.97
2019-03-31T02:08:14.747Z,70.47
2019-03-31T02:10:43.167Z,71.40
2019-03-31T02:13:11.728Z,70.07
2019-03-31T02:15:40.046Z,69.20
2019-03-31T02:18:08.472Z,68.83
2019-03-31T02:20:36.876Z,69.10
2019-03-31T02:23:05.307Z,68.03
2019-03-31T02:25:33.710Z,69.83
2019-03-31T02:28:02.126Z,69.97
2019-03-31T02:30:30.527Z,67.53
2019-03-31T02:32:58.927Z,66.83
2019-03-31T02:35:27.333Z,67.53
2019-03-31T02:37:55.708Z,62.80
2019-03-31T02:40:24.117Z,60.23
2019-03-31T02:42:52.540Z,60.00
2019-03-31T02:45:20.948Z,56.73
2019-03-31T02:47:49.362Z,57.97
2019-03-31T02:50:40.964Z,58.33
2019-03-31T02:53:09.479Z,60.50
2019-03-31T02:55:38.026Z,58.47
2019-03-31T02:58:06.442Z,56.43
2019-03-31T03:00:34.840Z,54.83
2019-03-31T03:03:03.418Z,54.27
2019-03-31T03:05:31.838Z,53.03
2019-03-31T03:08:00.263Z,51.67
2019-03-31T03:10:28.674Z,47.67
2019-03-31T03:12:57.326Z,46.47
2019-03-31T03:15:28.675Z,44.60
2019-03-31T03:17:57.053Z,45.77
2019-03-31T03:20:25.476Z,45.20
2019-03-31T03:22:53.852Z,43.27
2019-03-31T03:25:22.266Z,43.30
2019-03-31T03:27:50.653Z,40.57
2019-03-31T03:30:19.118Z,39.97
2019-03-31T03:33:12.164Z,38.97
2019-03-31T03:35:17.541Z,36.73
2019-03-31T03:37:45.899Z,37.10
2019-03-31T03:40:14.309Z,36.80
2019-03-31T03:42:42.719Z,36.00
2019-03-31T03:45:11.160Z,35.93
2019-03-31T03:47:39.534Z,36.17
2019-03-31T03:50:07.971Z,34.23
2019-03-31T03:52:36.421Z,33.03
2019-03-31T03:55:04.823Z,32.23
2019-03-31T03:57:33.324Z,30.37
2019-03-31T04:00:01.726Z,30.37
2019-03-31T04:02:30.143Z,30.77
2019-03-31T04:04:58.545Z,29.73
2019-03-31T04:07:26.938Z,28.53
2019-03-31T04:09:55.312Z,29.03
2019-03-31T04:12:23.804Z,27.50
2019-03-31T04:14:52.134Z,25.47
2019-03-31T04:17:20.519Z,26.47
2019-03-31T04:19:48.956Z,25.40
2019-03-31T04:22:17.346Z,25.03
2019-03-31T04:24:45.899Z,27.33
2019-03-31T04:27:18.746Z,25.47
2019-03-31T04:29:44.366Z,24.70
2019-03-31T04:32:12.877Z,22.13
2019-03-31T04:34:41.338Z,22.30
2019-03-31T04:37:09.740Z,21.70
2019-03-31T04:39:38.148Z,22.97
2019-03-31T04:42:06.543Z,23.03
2019-03-31T04:44:34.936Z,21.07
2019-03-31T04:47:03.415Z,22.03
2019-03-31T04:49:31.806Z,22.13
2019-03-31T04:52:00.199Z,21.63
2019-03-31T04:54:28.607Z,21.80
2019-03-31T04:56:56.993Z,21.70
2019-03-31T04:59:25.400Z,21.57
2019-03-31T05:01:53.789Z,23.43
2019-03-31T05:04:22.165Z,25.27
2019-03-31T05:06:50.562Z,23.63
2019-03-31T05:09:19.067Z,25.53
2019-03-31T05:11:47.459Z,26.13
2019-03-31T05:14:15.878Z,26.83
2019-03-31T05:16:44.317Z,24.83
2019-03-31T05:19:13.080Z,23.20
2019-03-31T05:21:41.596Z,23.40
2019-03-31T05:24:10.006Z,23.17
2019-03-31T05:26:38.417Z,22.03
2019-03-31T05:29:06.807Z,21.63
2019-03-31T05:31:35.198Z,21.20
2019-03-31T05:34:18.046Z,22.20
2019-03-31T05:36:33.636Z,22.30
2019-03-31T05:39:02.030Z,21.57
2019-03-31T05:41:30.433Z,21.30
2019-03-31T05:44:05.637Z,20.20
2019-03-31T05:46:28.914Z,20.40
2019-03-31T05:48:57.307Z,20.40
2019-03-31T05:51:25.721Z,20.37
2019-03-31T05:53:54.108Z,21.07
2019-03-31T05:56:22.536Z,19.27
2019-03-31T05:58:50.924Z,19.20
2019-03-31T06:01:19.333Z,19.77
2019-03-31T06:03:47.799Z,18.47
2019-03-31T06:06:16.216Z,17.93
2019-03-31T06:08:44.587Z,18.23
2019-03-31T06:11:13.004Z,18.23
2019-03-31T06:13:41.392Z,19.33
2019-03-31T06:16:09.791Z,19.17
2019-03-31T06:18:38.190Z,18.50
2019-03-31T06:21:06.591Z,17.27
2019-03-31T06:23:34.967Z,17.80
2019-03-31T06:26:03.469Z,15.53
2019-03-31T06:28:31.868Z,17.00
2019-03-31T06:31:00.295Z,16.13
2019-03-31T06:33:28.669Z,16.00
2019-03-31T06:35:57.048Z,14.50
2019-03-31T06:38:25.452Z,14.17
2019-03-31T06:40:55.546Z,15.43
2019-03-31T06:43:23.951Z,15.37
2019-03-31T06:45:52.358Z,15.00
2019-03-31T06:48:20.760Z,15.13
2019-03-31T06:50:49.147Z,12.77
2019-03-31T06:53:17.548Z,13.57
2019-03-31T06:55:45.940Z,11.93
2019-03-31T06:58:14.334Z,11.73
2019-03-31T07:00:42.770Z,11.40
2019-03-31T07:03:11.176Z,12.57
2019-03-31T07:05:39.588Z,10.60
2019-03-31T07:08:08.032Z,11.27
2019-03-31T07:10:36.493Z,10.60
2019-03-31T07:13:04.882Z,11.57
2019-03-31T07:15:33.309Z,9.40
2019-03-31T07:18:01.711Z,10.43
2019-03-31T07:20:30.089Z,10.00
2019-03-31T07:22:58.495Z,11.30
2019-03-31T07:25:26.887Z,8.93
2019-03-31T07:27:55.280Z,10.10
2019-03-31T07:30:23.775Z,10.00
2019-03-31T07:32:52.158Z,8.63
2019-03-31T07:35:20.649Z,9.37
2019-03-31T07:37:49.061Z,8.90
2019-03-31T07:40:20.038Z,8.93
2019-03-31T07:42:50.997Z,8.20
2019-03-31T07:45:18.687Z,7.23
2019-03-31T07:47:47.110Z,7.97
2019-03-31T07:50:17.512Z,6.70
2019-03-31T07:52:45.920Z,7.10
2019-03-31T07:55:14.330Z,7.13
2019-03-31T07:57:42.711Z,7.27
2019-03-31T08:00:17.002Z,6.17
2019-03-31T08:02:45.406Z,6.10
2019-03-31T08:05:13.910Z,5.70
2019-03-31T08:07:42.339Z,6.43
2019-03-31T08:10:11.292Z,5.40
2019-03-31T08:12:39.732Z,5.97
2019-03-31T08:15:08.287Z,4.93
2019-03-31T08:17:36.705Z,5.07
2019-03-31T08:20:08.353Z,5.23
2019-03-31T08:22:36.807Z,4.40
2019-03-31T08:25:06.400Z,4.33
2019-03-31T08:27:34.787Z,4.03
2019-03-31T08:30:03.363Z,3.80
2019-03-31T08:32:31.755Z,4.50
2019-03-31T08:35:00.415Z,3.70
2019-03-31T08:37:28.763Z,3.27
2019-03-31T08:39:57.163Z,3.30
2019-03-31T08:42:25.551Z,3.03
2019-03-31T08:44:54.086Z,3.50
2019-03-31T08:47:22.461Z,2.60
2019-03-31T08:49:50.979Z,2.20
2019-03-31T08:52:19.411Z,2.60
2019-03-31T08:54:47.908Z,2.40
2019-03-31T08:57:16.321Z,2.43
2019-03-31T08:59:44.765Z,2.60
2019-03-31T09:02:26.801Z,1.90
2019-03-31T09:04:55.218Z,2.00
2019-03-31T09:07:23.804Z,2.37
2019-03-31T09:09:52.215Z,2.20
2019-03-31T09:12:20.604Z,2.30
2019-03-31T09:14:49.028Z,1.93
2019-03-31T09:17:17.427Z,2.37
2019-03-31T09:19:45.831Z,2.30
2019-03-31T09:22:14.214Z,2.10
2019-03-31T09:24:42.629Z,2.10
2019-03-31T09:27:11.113Z,1.90
2019-03-31T09:29:39.520Z,2.20
2019-03-31T09:32:08.034Z,2.43
2019-03-31T09:34:36.439Z,2.20
2019-03-31T09:37:04.804Z,2.70
2019-03-31T09:39:33.199Z,2.57
2019-03-31T09:42:01.603Z,2.30
2019-03-31T09:44:30.405Z,2.57
2019-03-31T09:46:58.986Z,3.30
2019-03-31T09:49:27.379Z,2.73
2019-03-31T09:51:55.804Z,2.57
2019-03-31T09:54:24.216Z,3.00
2019-03-31T09:56:52.690Z,2.73
2019-03-31T09:59:21.066Z,3.63
2019-03-31T10:01:49.447Z,2.73
2019-03-31T10:04:17.935Z,2.90
2019-03-31T10:06:46.319Z,2.90
2019-03-31T10:09:14.733Z,3.13
2019-03-31T10:11:43.163Z,2.90
2019-03-31T10:14:11.667Z,2.83
2019-03-31T10:16:40.151Z,2.60
2019-03-31T10:19:08.580Z,2.50
2019-03-31T10:21:37.152Z,2.43
2019-03-31T10:24:05.547Z,2.80
2019-03-31T10:26:34.129Z,2.10
2019-03-31T10:29:02.513Z,2.40
2019-03-31T10:31:30.928Z,1.90
2019-03-31T10:33:59.382Z,2.47
2019-03-31T10:36:27.851Z,2.67
2019-03-31T10:38:56.232Z,3.10
2019-03-31T10:41:24.822Z,4.13
2019-03-31T10:43:53.375Z,5.87
2019-03-31T10:46:21.831Z,9.37
2019-03-31T10:48:50.289Z,9.10
2019-03-31T10:51:18.741Z,9.77
2019-03-31T10:53:47.200Z,9.60
2019-03-31T10:56:15.575Z,7.73
2019-03-31T10:58:43.987Z,7.37
2019-03-31T11:01:12.370Z,7.17
2019-03-31T11:03:40.839Z,7.10
2019-03-31T11:06:09.259Z,6.30
2019-03-31T11:08:37.678Z,6.90
2019-03-31T11:11:06.081Z,5.17
2019-03-31T11:13:37.484Z,5.00
2019-03-31T11:16:06.221Z,4.67
2019-03-31T11:18:34.632Z,4.50
2019-03-31T11:21:04.826Z,4.37
2019-03-31T11:23:33.308Z,3.13
2019-03-31T11:26:01.686Z,3.50
2019-03-31T11:28:30.191Z,3.43
2019-03-31T11:30:58.580Z,3.30
2019-03-31T11:33:27.000Z,3.17
2019-03-31T11:35:55.395Z,3.60
2019-03-31T11:38:23.784Z,3.43
2019-03-31T11:40:52.280Z,3.13
2019-03-31T11:43:20.739Z,3.23
2019-03-31T11:45:49.157Z,3.20
2019-03-31T11:48:17.563Z,3.23
2019-03-31T11:50:46.024Z,3.53
2019-03-31T11:53:14.475Z,3.37
2019-03-31T11:55:42.883Z,3.07
2019-03-31T11:58:11.246Z,2.90
2019-03-31T12:00:41.276Z,3.20
2019-03-31T12:03:09.764Z,3.77
2019-03-31T12:05:38.178Z,2.90
2019-03-31T12:08:06.570Z,2.10
2019-03-31T12:10:34.966Z,2.60
2019-03-31T12:13:03.358Z,2.80
2019-03-31T12:15:31.771Z,2.60
2019-03-31T12:18:00.175Z,2.33
2019-03-31T12:20:28.575Z,2.57
2019-03-31T12:22:56.960Z,3.10
2019-03-31T12:25:25.332Z,2.60
2019-03-31T12:27:53.739Z,2.07
2019-03-31T12:30:26.893Z,2.63
2019-03-31T12:32:55.863Z,2.17
2019-03-31T12:35:24.324Z,2.57
2019-03-31T12:37:52.761Z,2.37
2019-03-31T12:40:34.488Z,3.77
2019-03-31T12:43:02.900Z,2.30
2019-03-31T12:45:31.294Z,2.50
2019-03-31T12:48:01.449Z,2.40
2019-03-31T12:50:30.004Z,2.53
2019-03-31T12:52:58.663Z,2.40
2019-03-31T12:55:27.087Z,2.90
2019-03-31T12:57:55.434Z,2.67
2019-03-31T13:00:24.174Z,2.00
2019-03-31T13:02:52.965Z,2.27
2019-03-31T13:05:21.376Z,2.43
2019-03-31T13:07:56.214Z,2.47
2019-03-31T13:10:19.900Z,2.40
2019-03-31T13:12:48.279Z,2.30
2019-03-31T13:15:16.689Z,2.47
2019-03-31T13:17:45.060Z,2.90
2019-03-31T13:20:13.463Z,2.60
2019-03-31T13:22:41.882Z,3.00
2019-03-31T13:25:10.257Z,2.70
2019-03-31T13:27:38.669Z,2.67
2019-03-31T13:30:08.209Z,2.90
2019-03-31T13:32:36.623Z,2.77
2019-03-31T13:35:08.449Z,2.40
2019-03-31T13:37:36.779Z,3.20
2019-03-31T13:40:06.808Z,2.90
2019-03-31T13:42:35.196Z,2.73
2019-03-31T13:45:04.967Z,2.67
2019-03-31T13:47:33.420Z,2.80
2019-03-31T13:50:01.835Z,2.30
2019-03-31T13:52:30.211Z,2.40
2019-03-31T13:54:58.602Z,2.90
2019-03-31T13:57:27.904Z,2.73
2019-03-31T13:59:56.964Z,2.30
2019-03-31T14:02:25.416Z,2.00
2019-03-31T14:04:53.820Z,2.83
2019-03-31T14:07:22.344Z,2.57
2019-03-31T14:09:50.760Z,3.00
2019-03-31T14:12:19.170Z,2.53
2019-03-31T14:14:47.560Z,2.80
2019-03-31T14:17:16.009Z,2.57
2019-03-31T14:19:44.408Z,2.37
2019-03-31T14:22:12.885Z,2.00
2019-03-31T14:24:41.302Z,2.70
2019-03-31T14:27:09.679Z,2.77
2019-03-31T14:29:38.063Z,2.90
2019-03-31T14:32:06.477Z,2.80
2019-03-31T14:34:34.920Z,2.33
2019-03-31T14:37:03.332Z,2.70
2019-03-31T14:39:31.719Z,2.40
2019-03-31T14:42:00.165Z,2.50
2019-03-31T14:44:28.562Z,2.60
2019-03-31T14:46:56.943Z,2.20
2019-03-31T14:49:26.037Z,2.50
2019-03-31T14:51:54.504Z,2.10
2019-03-31T14:54:22.895Z,2.13
2019-03-31T14:56:51.383Z,2.20
2019-03-31T14:59:19.771Z,2.67
2019-03-31T15:01:48.178Z,2.67
2019-03-31T15:04:16.585Z,2.50
2019-03-31T15:06:45.032Z,2.10
2019-03-31T15:09:13.447Z,2.30
2019-03-31T15:11:41.826Z,2.27
2019-03-31T15:14:10.234Z,2.17
2019-03-31T15:16:38.682Z,2.17
2019-03-31T15:19:07.061Z,2.47
2019-03-31T15:21:35.511Z,1.90
2019-03-31T15:24:03.903Z,2.50
2019-03-31T15:26:32.319Z,2.60
2019-03-31T15:29:00.709Z,2.33
2019-03-31T15:31:29.123Z,2.10
2019-03-31T15:33:57.502Z,2.37
2019-03-31T15:36:25.913Z,2.77
2019-03-31T15:39:07.853Z,2.53
2019-03-31T15:41:24.346Z,2.60
2019-03-31T15:43:52.721Z,2.47
2019-03-31T15:46:24.406Z,2.67
2019-03-31T15:48:51.223Z,2.57
2019-03-31T15:51:19.674Z,2.40
2019-03-31T15:53:48.079Z,2.90
2019-03-31T15:56:16.535Z,2.60
2019-03-31T15:58:45.042Z,2.40
2019-03-31T16:01:13.466Z,2.93
2019-03-31T16:03:41.840Z,2.93
2019-03-31T16:06:10.254Z,2.97
2019-03-31T16:08:38.649Z,3.13
2019-03-31T16:11:07.152Z,2.50
2019-03-31T16:13:35.597Z,2.90
2019-03-31T16:16:03.993Z,2.27
2019-03-31T16:18:32.442Z,2.40
2019-03-31T16:21:00.867Z,2.70
2019-03-31T16:23:29.272Z,2.10
2019-03-31T16:25:58.643Z,2.60
2019-03-31T16:28:27.090Z,2.20
2019-03-31T16:30:55.489Z,2.50
2019-03-31T16:33:23.960Z,2.40
2019-03-31T16:35:52.543Z,2.60
2019-03-31T16:38:20.943Z,1.90
2019-03-31T16:40:49.395Z,2.13
2019-03-31T16:43:17.791Z,2.77
2019-03-31T16:45:46.202Z,2.20
2019-03-31T16:48:14.607Z,1.93
2019-03-31T16:50:42.982Z,1.97
2019-03-31T16:53:11.410Z,1.77
2019-03-31T16:55:39.783Z,1.67
2019-03-31T16:58:09.595Z,2.03
2019-03-31T17:00:38.074Z,2.13
2019-03-31T17:03:06.484Z,2.03
2019-03-31T17:05:34.889Z,2.00
2019-03-31T17:08:03.298Z,2.90
2019-03-31T17:10:31.695Z,1.90
2019-03-31T17:13:00.094Z,2.67
2019-03-31T17:15:28.499Z,1.80
2019-03-31T17:17:56.903Z,2.37
2019-03-31T17:20:25.285Z,1.70
2019-03-31T17:22:53.687Z,2.17
2019-03-31T17:25:22.162Z,2.03
2019-03-31T17:27:50.599Z,2.60
2019-03-31T17:30:18.993Z,2.00
2019-03-31T17:32:47.399Z,2.53
2019-03-31T17:35:15.797Z,2.07
2019-03-31T17:37:44.181Z,1.97
2019-03-31T17:40:12.614Z,2.10
2019-03-31T17:42:40.994Z,1.77
2019-03-31T17:45:09.678Z,1.33
2019-03-31T17:47:38.366Z,1.70
2019-03-31T17:50:06.859Z,1.20
2019-03-31T17:52:35.474Z,1.70
2019-03-31T17:55:05.115Z,1.80
2019-03-31T17:57:34.997Z,2.13
2019-03-31T18:00:04.743Z,2.10
2019-03-31T18:02:33.167Z,1.80
2019-03-31T18:05:01.547Z,1.90
2019-03-31T18:07:29.947Z,2.57
2019-03-31T18:09:58.341Z,2.40
2019-03-31T18:12:26.838Z,1.90
2019-03-31T18:14:55.298Z,2.27
2019-03-31T18:17:23.712Z,1.53
2019-03-31T18:19:52.091Z,1.80
2019-03-31T18:22:20.461Z,1.70
2019-03-31T18:24:48.862Z,1.57
2019-03-31T18:27:17.340Z,1.73
2019-03-31T18:29:45.764Z,2.07
2019-03-31T18:32:14.190Z,2.10
2019-03-31T18:34:42.775Z,2.30
2019-03-31T18:37:11.147Z,1.90
2019-03-31T18:39:39.657Z,1.80
2019-03-31T18:42:08.069Z,2.23
2019-03-31T18:44:36.522Z,2.27
2019-03-31T18:47:04.931Z,2.00
2019-03-31T18:49:33.302Z,2.20
2019-03-31T18:52:01.703Z,2.60
2019-03-31T18:54:46.974Z,2.03
2019-03-31T18:57:16.991Z,2.60
2019-03-31T18:59:49.871Z,2.97
2019-03-31T19:02:19.879Z,2.43
2019-03-31T19:04:50.008Z,3.33
2019-03-31T19:07:36.857Z,2.93
2019-03-31T19:10:24.055Z,2.30
2019-03-31T19:12:44.322Z,3.70
2019-03-31T19:15:17.068Z,3.50
2019-03-31T19:17:49.906Z,3.13
2019-03-31T19:20:22.832Z,2.83
2019-03-31T19:22:52.860Z,3.47
2019-03-31T19:25:25.891Z,3.20
2019-03-31T19:28:10.557Z,5.03
2019-03-31T19:30:40.564Z,3.37
2019-03-31T19:33:26.953Z,2.97
2019-03-31T19:35:57.028Z,3.03
2019-03-31T19:38:32.780Z,6.90
2019-03-31T19:41:21.328Z,3.87
2019-03-31T19:43:54.046Z,2.73
2019-03-31T19:46:39.306Z,3.70
2019-03-31T19:49:09.324Z,2.90
2019-03-31T19:51:39.349Z,2.63
2019-03-31T19:54:09.410Z,2.77
2019-03-31T19:56:39.435Z,3.23
2019-03-31T19:59:21.559Z,3.73
2019-03-31T20:01:51.660Z,3.30
2019-03-31T20:04:38.040Z,3.67
2019-03-31T20:07:17.038Z,3.10
2019-03-31T20:09:49.679Z,1.97
2019-03-31T20:12:25.396Z,2.93
2019-03-31T20:15:04.422Z,3.00
2019-03-31T20:17:37.136Z,2.60
2019-03-31T20:20:13.798Z,2.50
2019-03-31T20:22:49.530Z,2.80
2019-03-31T20:25:22.280Z,2.67
2019-03-31T20:27:55.009Z,3.53
2019-03-31T20:30:25.026Z,4.47
2019-03-31T20:33:11.513Z,4.40
2019-03-31T20:35:44.497Z,7.40
2019-03-31T20:38:23.400Z,3.00
2019-03-31T20:41:09.655Z,2.43
2019-03-31T20:43:39.769Z,3.00
2019-03-31T20:46:08.150Z,2.50
2019-03-31T20:48:36.562Z,2.77
2019-03-31T20:51:05.015Z,3.47
2019-03-31T20:53:33.395Z,3.40
2019-03-31T20:56:01.787Z,2.40
2019-03-31T20:58:30.194Z,6.93
2019-03-31T21:00:58.664Z,4.97
2019-03-31T21:03:27.044Z,3.73
2019-03-31T21:05:55.435Z,3.83
2019-03-31T21:08:23.886Z,3.67
2019-03-31T21:10:52.284Z,2.27
2019-03-31T21:13:20.691Z,1.83
2019-03-31T21:15:49.071Z,2.17
2019-03-31T21:18:17.481Z,3.17
2019-03-31T21:20:45.857Z,2.23
2019-03-31T21:23:14.260Z,2.40
2019-03-31T21:25:42.665Z,2.67
2019-03-31T21:28:11.055Z,2.50
2019-03-31T21:30:39.427Z,1.93
2019-03-31T21:33:07.825Z,2.60
2019-03-31T21:35:36.204Z,2.33
2019-03-31T21:38:04.612Z,3.07
2019-03-31T21:40:33.017Z,2.47
2019-03-31T21:43:01.395Z,2.73
2019-03-31T21:45:29.798Z,1.70
2019-03-31T21:47:58.174Z,3.10
2019-03-31T21:50:26.578Z,2.33
2019-03-31T21:52:54.989Z,2.57
2019-03-31T21:55:23.364Z,3.60
2019-03-31T21:57:51.764Z,3.03
2019-03-31T22:00:21.786Z,1.83
2019-03-31T22:02:50.186Z,2.67
2019-03-31T22:05:18.570Z,2.77
2019-03-31T22:07:46.959Z,2.90
2019-03-31T22:10:15.383Z,2.27
2019-03-31T22:12:43.760Z,2.40
2019-03-31T22:15:12.172Z,2.80
2019-03-31T22:17:40.557Z,2.70
2019-03-31T22:20:08.959Z,3.27
2019-03-31T22:22:37.358Z,2.23
2019-03-31T22:25:06.526Z,2.93
2019-03-31T22:27:34.899Z,2.70
2019-03-31T22:30:04.751Z,2.17
2019-03-31T22:32:33.200Z,3.00
2019-03-31T22:35:01.555Z,2.00
2019-03-31T22:37:29.955Z,2.33
2019-03-31T22:39:58.372Z,2.20
2019-03-31T22:42:26.738Z,2.63
2019-03-31T22:44:55.144Z,2.20
2019-03-31T22:47:23.552Z,2.37
2019-03-31T22:49:51.935Z,2.07
2019-03-31T22:52:20.349Z,1.87
2019-03-31T22:54:48.719Z,2.40
2019-03-31T22:57:17.110Z,2.13
2019-03-31T22:59:45.513Z,2.50
2019-03-31T23:02:13.970Z,2.57
2019-03-31T23:04:42.379Z,1.90
2019-03-31T23:07:10.765Z,2.10
2019-03-31T23:09:39.152Z,2.13
2019-03-31T23:12:16.086Z,1.83
2019-03-31T23:14:44.472Z,2.53
2019-03-31T23:17:12.852Z,2.17
2019-03-31T23:19:41.259Z,2.40
2019-03-31T23:22:09.634Z,1.77
2019-03-31T23:24:38.389Z,1.67
2019-03-31T23:27:06.886Z,1.73
2019-03-31T23:29:35.249Z,2.03
2019-03-31T23:32:03.652Z,1.97
2019-03-31T23:34:32.034Z,1.83
2019-03-31T23:37:00.435Z,1.63
2019-03-31T23:39:28.833Z,1.50
2019-03-31T23:41:57.222Z,1.87
2019-03-31T23:44:45.055Z,1.60
2019-03-31T23:47:13.474Z,2.30
2019-03-31T23:50:01.289Z,1.60
2019-03-31T23:52:29.930Z,2.33
2019-03-31T23:54:58.326Z,2.27
2019-03-31T23:57:42.550Z,1.93
